Time;durP1;ratioP1;P1;durP2;ratioP2;P2;SDS_P1;SDS_P2;PMS_P1;PMS_P2;Temp;Humidity;BMP_temperature;BMP_pressure;BME280_temperature;BME280_humidity;BME280_pressure;Samples;Min_cycle;Max_cycle;Signal;HPM_P1;HPM_P2
2022/03/07 00:02:12;;;;;;;15.60;11.50;;;-0.60;99.90;;;;;;5073382;28;20454;-77
2022/03/07 00:04:41;;;;;;;15.07;11.63;;;-0.60;99.90;;;;;;5089435;28;20442;-75
2022/03/07 00:07:08;;;;;;;14.87;12.57;;;-0.70;99.90;;;;;;5094639;28;20459;-74
2022/03/07 00:09:37;;;;;;;14.30;11.97;;;-0.70;99.90;;;;;;5093691;28;20465;-75
2022/03/07 00:12:06;;;;;;;15.87;12.20;;;-0.70;99.90;;;;;;5084174;28;20485;-76
2022/03/07 00:14:34;;;;;;;15.13;12.50;;;-0.70;99.90;;;;;;5079141;28;20552;-75
2022/03/07 00:17:04;;;;;;;15.17;12.60;;;-0.80;99.90;;;;;;5075219;28;20966;-75
2022/03/07 00:19:32;;;;;;;18.47;12.73;;;-0.80;99.90;;;;;;5076078;28;20468;-75
2022/03/07 00:22:02;;;;;;;17.37;13.50;;;-0.80;99.90;;;;;;5075365;28;20449;-75
2022/03/07 00:24:31;;;;;;;16.67;13.07;;;-0.80;99.90;;;;;;5076046;28;20477;-75
2022/03/07 00:26:59;;;;;;;17.67;13.97;;;-0.80;99.90;;;;;;5075278;28;20497;-75
2022/03/07 00:29:27;;;;;;;16.67;14.13;;;-0.80;99.90;;;;;;5075951;28;20487;-75
2022/03/07 00:31:56;;;;;;;18.53;14.27;;;-0.80;99.90;;;;;;5075928;28;20505;-74
2022/03/07 00:34:25;;;;;;;19.77;14.87;;;-0.80;99.90;;;;;;5075220;28;20574;-75
2022/03/07 00:36:53;;;;;;;15.93;14.23;;;-0.80;99.90;;;;;;5075726;28;20457;-74
2022/03/07 00:39:21;;;;;;;16.83;14.27;;;-0.90;99.90;;;;;;5077700;28;20565;-75
2022/03/07 00:41:51;;;;;;;18.63;14.37;;;-0.80;99.90;;;;;;5076002;28;20477;-75
2022/03/07 00:44:19;;;;;;;18.63;15.60;;;-0.90;99.90;;;;;;5076340;28;20981;-76
2022/03/07 00:46:47;;;;;;;16.37;14.63;;;-0.90;99.90;;;;;;5076141;28;20776;-76
2022/03/07 00:49:15;;;;;;;19.60;14.70;;;-0.90;99.90;;;;;;5075849;28;20539;-77
2022/03/07 00:51:44;;;;;;;20.13;15.23;;;-0.90;99.90;;;;;;5059668;28;20602;-75
2022/03/07 00:54:20;;;;;;;18.60;15.63;;;-0.90;99.90;;;;;;5055458;28;20560;-77
2022/03/07 00:56:49;;;;;;;17.43;15.30;;;-0.90;99.90;;;;;;5060918;28;20475;-78
2022/03/07 00:59:17;;;;;;;19.63;16.60;;;-0.90;99.90;;;;;;5071969;28;20435;-76
2022/03/07 01:01:45;;;;;;;19.33;16.33;;;-0.90;99.90;;;;;;5070433;28;20481;-77
2022/03/07 01:04:15;;;;;;;18.80;16.17;;;-0.90;99.90;;;;;;5078925;28;20453;-76
2022/03/07 01:06:47;;;;;;;22.73;16.80;;;-0.90;99.90;;;;;;5085104;28;20517;-77
2022/03/07 01:09:19;;;;;;;19.67;16.63;;;-0.90;99.90;;;;;;5089384;28;20419;-74
2022/03/07 01:11:47;;;;;;;22.20;16.43;;;-1.00;99.90;;;;;;5090377;28;20442;-75
2022/03/07 01:14:17;;;;;;;19.17;16.77;;;-1.10;99.90;;;;;;5089806;28;20481;-77
2022/03/07 01:16:45;;;;;;;18.33;15.57;;;-1.00;99.90;;;;;;5088166;28;20454;-76
2022/03/07 01:19:14;;;;;;;18.83;16.20;;;-1.00;99.90;;;;;;5087872;28;20887;-76
2022/03/07 01:21:42;;;;;;;18.70;15.83;;;-1.10;99.90;;;;;;5088315;28;20484;-76
2022/03/07 01:24:11;;;;;;;17.73;15.80;;;-1.10;99.90;;;;;;5084979;28;20536;-76
2022/03/07 01:26:40;;;;;;;17.47;15.30;;;-1.10;99.90;;;;;;5076254;28;20462;-76
2022/03/07 01:29:08;;;;;;;18.47;15.33;;;-1.10;99.90;;;;;;5075272;28;20450;-79
2022/03/07 01:31:36;;;;;;;18.30;14.93;;;-1.20;99.90;;;;;;5074417;28;20477;-75
2022/03/07 01:34:05;;;;;;;18.83;14.13;;;-1.10;99.90;;;;;;5073933;28;20454;-76
2022/03/07 01:36:35;;;;;;;19.17;14.63;;;-1.10;99.90;;;;;;5074066;28;20458;-74
2022/03/07 01:39:04;;;;;;;16.70;14.43;;;-1.20;99.90;;;;;;5074909;28;20497;-74
2022/03/07 01:41:33;;;;;;;15.00;12.77;;;-1.20;99.90;;;;;;5080197;28;20533;-74
2022/03/07 01:44:02;;;;;;;16.20;13.03;;;-1.20;99.90;;;;;;5079805;28;20450;-74
2022/03/07 01:46:32;;;;;;;17.67;13.57;;;-1.20;99.90;;;;;;5073971;28;20466;-75
2022/03/07 01:49:00;;;;;;;18.87;13.33;;;-1.30;99.90;;;;;;5076606;28;20474;-76
2022/03/07 01:51:28;;;;;;;16.07;13.23;;;-1.30;99.90;;;;;;5073806;28;20473;-74
2022/03/07 01:53:59;;;;;;;14.57;12.30;;;-1.30;99.90;;;;;;5073811;28;20521;-74
2022/03/07 01:56:29;;;;;;;17.07;12.53;;;-1.20;99.90;;;;;;5073446;28;20462;-75
2022/03/07 01:58:58;;;;;;;13.07;11.50;;;-1.30;99.90;;;;;;5073721;28;20537;-75
2022/03/07 02:01:26;;;;;;;13.73;11.37;;;-1.30;99.90;;;;;;5073084;28;20457;-74
2022/03/07 02:03:55;;;;;;;13.63;11.40;;;-1.30;99.90;;;;;;5073202;28;20541;-75
2022/03/07 02:06:24;;;;;;;13.97;11.70;;;-1.30;99.90;;;;;;5072679;28;20446;-75
2022/03/07 02:08:52;;;;;;;14.77;10.80;;;-1.30;99.90;;;;;;5072913;28;20888;-75
2022/03/07 02:11:21;;;;;;;14.03;10.63;;;-1.30;99.90;;;;;;5072945;28;20438;-74
2022/03/07 02:13:49;;;;;;;12.43;10.47;;;-1.30;99.90;;;;;;5073078;28;20533;-77
2022/03/07 02:16:19;;;;;;;14.47;11.00;;;-1.30;99.90;;;;;;5073371;28;20477;-74
2022/03/07 02:18:48;;;;;;;13.80;10.50;;;-1.40;99.90;;;;;;5074296;28;20450;-74
2022/03/07 02:21:18;;;;;;;13.73;11.27;;;-1.50;99.90;;;;;;5074432;28;20536;-75
2022/03/07 02:23:48;;;;;;;12.77;10.37;;;-1.40;99.90;;;;;;5073319;28;20486;-74
2022/03/07 02:26:17;;;;;;;12.33;10.37;;;-1.40;99.90;;;;;;5073356;28;20480;-75
2022/03/07 02:28:48;;;;;;;12.77;10.23;;;-1.40;99.90;;;;;;5073180;28;20520;-75
2022/03/07 02:31:19;;;;;;;13.10;10.70;;;-1.40;99.90;;;;;;5073468;28;20474;-77
2022/03/07 02:33:51;;;;;;;12.40;9.93;;;-1.40;99.90;;;;;;5073265;28;20932;-75
2022/03/07 02:36:19;;;;;;;12.20;9.70;;;-1.40;99.90;;;;;;5073214;28;20561;-76
2022/03/07 02:38:51;;;;;;;13.33;9.17;;;-1.40;99.90;;;;;;5072136;28;20465;-76
2022/03/07 02:41:20;;;;;;;11.60;9.53;;;-1.40;99.90;;;;;;5072542;28;20462;-75
2022/03/07 02:43:48;;;;;;;14.43;9.47;;;-1.40;99.90;;;;;;5073422;28;20533;-79
2022/03/07 02:46:16;;;;;;;10.60;9.40;;;-1.50;99.90;;;;;;5072763;28;20449;-75
2022/03/07 02:48:45;;;;;;;9.80;8.50;;;-1.40;99.90;;;;;;5057735;28;20471;-75
2022/03/07 02:51:13;;;;;;;10.80;8.77;;;-1.40;99.90;;;;;;5067202;28;20493;-74
2022/03/07 02:53:41;;;;;;;11.40;8.83;;;-1.50;99.90;;;;;;5071754;28;20446;-74
2022/03/07 02:56:11;;;;;;;11.60;8.90;;;-1.50;99.90;;;;;;5072003;28;20919;-76
2022/03/07 02:58:39;;;;;;;12.57;9.67;;;-1.50;99.90;;;;;;5072668;28;20854;-74
2022/03/07 03:01:07;;;;;;;10.97;9.07;;;-1.50;99.90;;;;;;5071801;28;20485;-75
2022/03/07 03:03:36;;;;;;;11.97;9.17;;;-1.60;99.90;;;;;;5071956;28;20450;-73
2022/03/07 03:06:05;;;;;;;13.97;9.70;;;-1.60;99.90;;;;;;5072459;28;20442;-76
2022/03/07 03:08:33;;;;;;;11.17;8.80;;;-1.50;99.90;;;;;;5071984;28;21069;-75
2022/03/07 03:11:01;;;;;;;12.17;8.83;;;-1.50;99.90;;;;;;5071353;28;20969;-75
2022/03/07 03:13:31;;;;;;;11.03;8.73;;;-1.50;99.90;;;;;;5072275;28;20477;-76
2022/03/07 03:15:59;;;;;;;12.10;9.07;;;-1.50;99.90;;;;;;5072180;28;20492;-75
2022/03/07 03:18:28;;;;;;;10.57;8.70;;;-1.50;99.90;;;;;;5071540;28;20453;-75
2022/03/07 03:20:56;;;;;;;11.10;8.63;;;-1.50;99.90;;;;;;5072229;28;20489;-73
2022/03/07 03:23:24;;;;;;;13.40;9.40;;;-1.50;99.90;;;;;;5072085;28;20507;-76
2022/03/07 03:25:55;;;;;;;10.90;8.83;;;-1.50;99.90;;;;;;5071985;28;20422;-73
2022/03/07 03:28:26;;;;;;;11.07;8.87;;;-1.50;99.90;;;;;;5071970;28;20454;-75
2022/03/07 03:30:58;;;;;;;10.57;8.43;;;-1.50;99.90;;;;;;5071700;28;20908;-75
2022/03/07 03:33:26;;;;;;;12.47;9.00;;;-1.50;99.90;;;;;;5071839;28;20809;-76
2022/03/07 03:35:53;;;;;;;12.03;8.60;;;-1.50;99.90;;;;;;5074024;28;20481;-75
2022/03/07 03:38:21;;;;;;;11.87;9.60;;;-1.60;99.90;;;;;;5071319;28;20987;-75
2022/03/07 03:40:51;;;;;;;11.17;8.90;;;-1.60;99.90;;;;;;5073925;28;20552;-73
2022/03/07 03:43:20;;;;;;;10.70;8.37;;;-1.50;99.90;;;;;;5071855;28;20549;-77
2022/03/07 03:45:48;;;;;;;11.60;9.43;;;-1.60;99.90;;;;;;5069821;28;20470;-75
2022/03/07 03:48:17;;;;;;;11.67;9.60;;;-1.60;99.90;;;;;;5064096;28;20509;-75
2022/03/07 03:50:46;;;;;;;11.67;8.90;;;-1.60;99.90;;;;;;5071682;28;20458;-74
2022/03/07 03:53:14;;;;;;;10.27;8.87;;;-1.60;99.90;;;;;;5072073;28;20939;-75
2022/03/07 03:55:42;;;;;;;12.87;9.47;;;-1.50;99.90;;;;;;5072303;28;20532;-75
2022/03/07 03:58:10;;;;;;;11.70;9.80;;;-1.50;99.90;;;;;;5071739;28;20533;-76
2022/03/07 04:00:40;;;;;;;12.50;9.53;;;-1.60;99.90;;;;;;5070466;28;20494;-74
2022/03/07 04:03:08;;;;;;;13.07;10.23;;;-1.60;99.90;;;;;;5071516;28;20453;-76
2022/03/07 04:05:41;;;;;;;12.10;9.90;;;-1.50;99.90;;;;;;5071644;28;20474;-76
2022/03/07 04:08:09;;;;;;;13.17;9.53;;;-1.50;99.90;;;;;;5071301;28;20544;-77
2022/03/07 04:10:37;;;;;;;12.80;9.97;;;-1.50;99.90;;;;;;5071300;28;20496;-76
2022/03/07 04:13:05;;;;;;;12.17;9.93;;;-1.50;99.90;;;;;;5071479;28;20536;-77
2022/03/07 04:15:38;;;;;;;12.60;10.30;;;-1.50;99.90;;;;;;5071279;28;20541;-77
2022/03/07 04:18:07;;;;;;;12.73;10.17;;;-1.60;99.90;;;;;;5072143;28;20853;-75
2022/03/07 04:20:35;;;;;;;13.10;10.63;;;-1.60;99.90;;;;;;5071269;28;20537;-75
2022/03/07 04:23:05;;;;;;;13.53;10.20;;;-1.60;99.90;;;;;;5071034;28;20568;-75
2022/03/07 04:25:33;;;;;;;11.43;10.00;;;-1.60;99.90;;;;;;5070789;28;20524;-78
2022/03/07 04:28:04;;;;;;;13.70;10.47;;;-1.60;99.90;;;;;;5071637;28;20446;-76
2022/03/07 04:30:34;;;;;;;14.40;10.87;;;-1.60;99.90;;;;;;5071299;28;20496;-76
2022/03/07 04:33:02;;;;;;;13.50;10.63;;;-1.60;99.90;;;;;;5071371;28;20960;-75
2022/03/07 04:35:30;;;;;;;14.43;10.57;;;-1.60;99.90;;;;;;5071977;28;20481;-74
2022/03/07 04:38:01;;;;;;;14.63;10.83;;;-1.50;99.90;;;;;;5070732;28;20549;-75
2022/03/07 04:40:31;;;;;;;13.77;10.40;;;-1.60;99.90;;;;;;5071435;28;20503;-75
2022/03/07 04:43:01;;;;;;;14.40;10.57;;;-1.60;99.90;;;;;;5071172;28;20537;-77
2022/03/07 04:45:29;;;;;;;13.20;10.73;;;-1.60;99.90;;;;;;5070585;28;20519;-75
2022/03/07 04:47:59;;;;;;;12.70;10.13;;;-1.60;99.90;;;;;;5071378;28;20824;-75
2022/03/07 04:50:27;;;;;;;12.63;10.80;;;-1.70;99.90;;;;;;5071294;28;20453;-74
2022/03/07 04:52:58;;;;;;;12.80;10.57;;;-1.60;99.90;;;;;;5075129;28;20453;-75
2022/03/07 04:55:27;;;;;;;13.07;10.90;;;-1.60;99.90;;;;;;5074157;28;20546;-75
2022/03/07 04:58:01;;;;;;;14.43;11.30;;;-1.70;99.90;;;;;;5074492;28;21078;-74
2022/03/07 05:00:30;;;;;;;13.73;10.97;;;-1.70;99.90;;;;;;5073848;28;20451;-77
2022/03/07 05:02:58;;;;;;;15.07;11.30;;;-1.70;99.90;;;;;;5074022;28;20979;-77
2022/03/07 05:05:27;;;;;;;15.77;11.20;;;-1.70;99.90;;;;;;5073868;28;20796;-75
2022/03/07 05:07:58;;;;;;;12.93;10.30;;;-1.70;99.90;;;;;;5073807;28;20464;-76
2022/03/07 05:10:29;;;;;;;14.80;11.90;;;-1.70;99.90;;;;;;5073685;28;20488;-76
2022/03/07 05:12:57;;;;;;;14.47;11.20;;;-1.70;99.90;;;;;;5074052;28;20540;-76
2022/03/07 05:15:27;;;;;;;16.77;11.67;;;-1.70;99.90;;;;;;5074326;28;20469;-75
2022/03/07 05:17:55;;;;;;;13.73;10.93;;;-1.60;99.90;;;;;;5073924;28;20489;-74
2022/03/07 05:20:25;;;;;;;14.10;11.33;;;-1.60;99.90;;;;;;5073663;28;20489;-75
2022/03/07 05:23:13;;;;;;;15.67;11.23;;;-1.60;99.90;;;;;;5073887;28;20803;-75
2022/03/07 05:25:41;;;;;;;13.00;11.10;;;-1.60;99.90;;;;;;5073384;28;20454;-76
2022/03/07 05:28:09;;;;;;;14.23;11.47;;;-1.60;99.90;;;;;;5073758;28;20540;-76
2022/03/07 05:30:43;;;;;;;15.37;11.70;;;-1.60;99.90;;;;;;5072618;28;21039;-73
2022/03/07 05:33:11;;;;;;;14.60;11.60;;;-1.60;99.90;;;;;;5072467;28;20533;-76
2022/03/07 05:35:39;;;;;;;14.57;11.57;;;-1.70;99.90;;;;;;5073262;28;20464;-75
2022/03/07 05:38:08;;;;;;;14.47;11.50;;;-1.60;99.90;;;;;;5073298;28;20577;-73
2022/03/07 05:40:36;;;;;;;15.17;11.50;;;-1.70;99.90;;;;;;5073452;28;20796;-73
2022/03/07 05:43:05;;;;;;;15.43;11.73;;;-1.70;99.90;;;;;;5071073;28;20465;-74
2022/03/07 05:45:33;;;;;;;15.10;11.93;;;-1.70;99.90;;;;;;5072868;28;21164;-74
2022/03/07 05:48:03;;;;;;;14.87;12.17;;;-1.70;99.90;;;;;;5073361;28;20493;-74
2022/03/07 05:50:31;;;;;;;16.27;12.03;;;-1.70;99.90;;;;;;5070679;28;20528;-75
2022/03/07 05:53:00;;;;;;;16.33;12.33;;;-1.70;99.90;;;;;;5073524;28;20528;-75
2022/03/07 05:55:31;;;;;;;14.57;12.40;;;-1.70;99.90;;;;;;5073108;28;20488;-73
2022/03/07 05:58:00;;;;;;;16.23;12.87;;;-1.60;99.90;;;;;;5073304;28;20505;-76
2022/03/07 06:00:29;;;;;;;18.00;12.47;;;-1.60;99.90;;;;;;5073151;28;20449;-75
2022/03/07 06:02:57;;;;;;;14.63;11.77;;;-1.70;99.90;;;;;;5072566;28;20449;-75
2022/03/07 06:05:27;;;;;;;14.57;11.50;;;-1.60;99.90;;;;;;5073067;28;20469;-73
2022/03/07 06:07:56;;;;;;;14.57;12.23;;;-1.60;99.90;;;;;;5072773;28;20456;-76
2022/03/07 06:10:26;;;;;;;16.63;12.53;;;-1.60;99.90;;;;;;5072573;28;20450;-74
2022/03/07 06:12:54;;;;;;;15.83;11.80;;;-1.50;99.90;;;;;;5073302;28;20528;-75
2022/03/07 06:15:24;;;;;;;15.07;12.17;;;-1.50;99.90;;;;;;5073512;28;20537;-75
2022/03/07 06:17:54;;;;;;;17.83;12.30;;;-1.60;99.90;;;;;;5073631;28;20995;-74
2022/03/07 06:20:24;;;;;;;14.20;12.17;;;-1.50;99.90;;;;;;5073340;28;20541;-74
2022/03/07 06:22:54;;;;;;;17.93;12.53;;;-1.50;99.90;;;;;;5074140;28;20422;-74
2022/03/07 06:25:23;;;;;;;17.57;12.70;;;-1.50;99.90;;;;;;5073667;28;20449;-73
2022/03/07 06:27:52;;;;;;;15.00;12.07;;;-1.50;99.90;;;;;;5072643;28;20458;-75
2022/03/07 06:30:20;;;;;;;16.60;12.83;;;-1.40;99.90;;;;;;5072312;28;20492;-76
2022/03/07 06:32:48;;;;;;;17.23;13.17;;;-1.40;99.90;;;;;;5072586;28;20515;-75
2022/03/07 06:35:16;;;;;;;18.17;13.37;;;-1.40;99.90;;;;;;5072786;28;20524;-76
2022/03/07 06:37:48;;;;;;;17.20;13.10;;;-1.40;99.90;;;;;;5072283;28;20565;-73
2022/03/07 06:40:19;;;;;;;16.73;13.13;;;-1.30;99.90;;;;;;5060820;28;20484;-73
2022/03/07 06:42:48;;;;;;;17.87;13.77;;;-1.30;99.90;;;;;;5072335;28;20540;-74
2022/03/07 06:45:21;;;;;;;18.83;15.70;;;-1.30;99.90;;;;;;5070585;28;20480;-75
2022/03/07 06:47:49;;;;;;;18.30;14.13;;;-1.20;99.90;;;;;;5069214;28;20456;-74
2022/03/07 06:50:18;;;;;;;18.77;14.57;;;-1.30;99.90;;;;;;5064095;28;20539;-76
2022/03/07 06:52:46;;;;;;;20.73;15.93;;;-1.30;99.90;;;;;;5072371;28;20499;-75
2022/03/07 06:55:15;;;;;;;19.47;15.00;;;-1.20;99.90;;;;;;5068137;28;20585;-75
2022/03/07 06:57:51;;;;;;;17.70;14.27;;;-1.20;99.90;;;;;;5071827;28;20514;-75
2022/03/07 07:00:20;;;;;;;18.83;14.07;;;-1.30;99.90;;;;;;5072605;28;20470;-75
2022/03/07 07:02:48;;;;;;;17.67;14.57;;;-1.20;99.90;;;;;;5071691;28;20507;-75
2022/03/07 07:05:17;;;;;;;19.27;15.27;;;-1.10;99.90;;;;;;5072345;28;20454;-76
2022/03/07 07:07:46;;;;;;;18.80;14.93;;;-1.00;99.90;;;;;;5071878;28;20511;-75
2022/03/07 07:10:18;;;;;;;20.47;15.40;;;-0.90;99.90;;;;;;5072294;28;20516;-74
2022/03/07 07:12:49;;;;;;;26.87;18.77;;;-0.80;99.90;;;;;;5071838;28;20461;-74
2022/03/07 07:15:21;;;;;;;25.80;17.40;;;-0.80;99.90;;;;;;5070217;28;20490;-75
2022/03/07 07:17:49;;;;;;;21.43;16.87;;;-0.70;99.90;;;;;;5072534;28;20561;-74
2022/03/07 07:20:17;;;;;;;19.93;15.83;;;-0.50;99.90;;;;;;5071051;28;20942;-74
2022/03/07 07:22:48;;;;;;;18.37;15.77;;;-0.30;99.90;;;;;;5071571;28;20492;-74
2022/03/07 07:25:16;;;;;;;18.93;15.63;;;-0.20;99.90;;;;;;5070733;28;20545;-74
2022/03/07 07:27:44;;;;;;;18.23;15.23;;;0.30;99.90;;;;;;5071972;28;20453;-75
2022/03/07 07:30:14;;;;;;;17.40;15.00;;;2.00;99.90;;;;;;5072493;28;20474;-76
2022/03/07 07:32:44;;;;;;;17.67;14.47;;;2.40;99.90;;;;;;5072985;28;20495;-77
2022/03/07 07:35:12;;;;;;;15.63;13.90;;;1.80;99.90;;;;;;5071091;28;20474;-79
2022/03/07 07:37:40;;;;;;;16.23;14.53;;;1.30;99.90;;;;;;5066609;28;20493;-77
2022/03/07 07:40:11;;;;;;;17.57;14.40;;;1.10;99.90;;;;;;5063383;28;20449;-77
2022/03/07 07:42:40;;;;;;;17.70;15.07;;;1.10;99.90;;;;;;5065639;28;20308;-74
2022/03/07 07:45:09;;;;;;;17.03;14.37;;;1.00;99.90;;;;;;5071006;28;20485;-77
2022/03/07 07:47:38;;;;;;;17.17;14.80;;;1.00;99.90;;;;;;5071372;28;20199;-78
2022/03/07 07:50:08;;;;;;;17.07;14.57;;;1.10;99.90;;;;;;5071731;28;20505;-78
2022/03/07 07:52:36;;;;;;;17.10;14.80;;;1.20;99.90;;;;;;5073836;28;20247;-78
2022/03/07 07:55:06;;;;;;;16.40;14.30;;;1.10;99.90;;;;;;5072380;28;20207;-76
2022/03/07 07:57:35;;;;;;;16.37;14.60;;;1.40;99.90;;;;;;5065840;28;20615;-76
2022/03/07 08:00:05;;;;;;;17.10;15.10;;;1.60;99.90;;;;;;5072039;28;20477;-74
2022/03/07 08:02:46;;;;;;;17.80;15.70;;;1.60;99.90;;;;;;5070740;28;20478;-76
2022/03/07 08:05:15;;;;;;;17.37;15.47;;;1.40;99.90;;;;;;5072350;28;20270;-76
2022/03/07 08:07:45;;;;;;;19.83;15.87;;;1.20;99.90;;;;;;5073468;28;20234;-77
2022/03/07 08:10:14;;;;;;;19.67;16.03;;;1.20;99.90;;;;;;5072217;28;20292;-74
2022/03/07 08:12:42;;;;;;;20.00;17.00;;;1.20;99.90;;;;;;5083940;28;20242;-76
2022/03/07 08:15:12;;;;;;;19.70;16.77;;;1.00;99.90;;;;;;5080838;28;20234;-74
2022/03/07 08:17:43;;;;;;;19.63;16.60;;;1.20;99.90;;;;;;5075317;28;20489;-76
2022/03/07 08:20:19;;;;;;;20.93;16.33;;;1.20;99.90;;;;;;5071958;28;20484;-74
2022/03/07 08:22:48;;;;;;;19.97;16.70;;;1.20;99.90;;;;;;5071026;28;20249;-75
2022/03/07 08:25:17;;;;;;;18.60;16.60;;;1.30;99.90;;;;;;5071846;28;20457;-75
2022/03/07 08:27:45;;;;;;;18.50;16.07;;;1.50;99.90;;;;;;5074992;28;20642;-74
2022/03/07 08:30:15;;;;;;;19.17;16.57;;;1.30;99.90;;;;;;5073989;28;20356;-75
2022/03/07 08:32:46;;;;;;;23.30;17.27;;;1.30;99.90;;;;;;5086882;28;20453;-75
2022/03/07 08:35:16;;;;;;;18.90;16.47;;;1.30;99.90;;;;;;5075031;28;20207;-73
2022/03/07 08:37:47;;;;;;;19.33;16.80;;;1.50;99.90;;;;;;5079479;28;20543;-76
2022/03/07 08:40:17;;;;;;;18.43;16.50;;;1.40;99.90;;;;;;5088106;28;20464;-74
2022/03/07 08:42:46;;;;;;;18.60;16.60;;;1.60;99.90;;;;;;5073998;28;20203;-77
2022/03/07 08:45:19;;;;;;;19.90;17.80;;;1.70;99.90;;;;;;5073381;28;20909;-76
2022/03/07 08:47:55;;;;;;;19.20;17.20;;;1.70;99.90;;;;;;5074510;28;20195;-75
2022/03/07 08:50:25;;;;;;;20.83;16.50;;;1.90;99.90;;;;;;5073343;28;20338;-76
2022/03/07 08:52:53;;;;;;;21.83;17.53;;;1.90;99.90;;;;;;5073434;28;20249;-76
2022/03/07 08:55:21;;;;;;;19.27;16.87;;;2.10;99.90;;;;;;5078804;28;20196;-75
2022/03/07 08:57:51;;;;;;;19.57;16.87;;;2.20;99.90;;;;;;5082654;28;20231;-74
2022/03/07 09:00:26;;;;;;;18.27;16.30;;;2.20;99.90;;;;;;5094796;28;20253;-74
2022/03/07 09:02:54;;;;;;;17.80;15.90;;;2.50;99.90;;;;;;5077016;28;20297;-75
2022/03/07 09:05:22;;;;;;;19.17;16.93;;;2.50;99.30;;;;;;5075098;28;20254;-75
2022/03/07 09:07:52;;;;;;;19.17;16.97;;;2.30;98.90;;;;;;5073003;28;20291;-75
2022/03/07 09:10:20;;;;;;;17.60;15.77;;;2.50;99.50;;;;;;5073628;28;20224;-75
2022/03/07 09:12:49;;;;;;;18.77;16.50;;;2.70;99.90;;;;;;5071068;28;20247;-75
2022/03/07 09:15:19;;;;;;;21.40;16.83;;;2.90;99.00;;;;;;5074652;28;20281;-76
2022/03/07 09:17:47;;;;;;;18.90;16.93;;;2.90;98.20;;;;;;5073996;28;20302;-75
2022/03/07 09:20:17;;;;;;;18.93;16.90;;;3.00;99.20;;;;;;5074776;28;20293;-75
2022/03/07 09:22:46;;;;;;;18.27;16.17;;;3.00;98.30;;;;;;5075401;28;20192;-75
2022/03/07 09:25:16;;;;;;;18.77;16.50;;;3.10;98.50;;;;;;5074712;28;20269;-74
2022/03/07 09:27:46;;;;;;;20.58;17.90;;;3.10;98.20;;;;;;5074544;28;20438;-73
2022/03/07 09:30:15;;;;;;;19.07;17.17;;;3.10;98.30;;;;;;5074303;28;20208;-77
2022/03/07 09:32:43;;;;;;;19.10;17.07;;;3.10;98.00;;;;;;5073954;28;20312;-75
2022/03/07 09:35:12;;;;;;;20.47;17.67;;;2.90;98.10;;;;;;5074747;28;20215;-75
2022/03/07 09:37:40;;;;;;;20.03;17.93;;;3.20;99.70;;;;;;5070751;28;20222;-77
2022/03/07 09:40:13;;;;;;;18.97;16.93;;;3.10;98.10;;;;;;5073194;28;20227;-74
2022/03/07 09:42:43;;;;;;;21.37;17.17;;;3.20;97.20;;;;;;5074107;28;20223;-75
2022/03/07 09:45:13;;;;;;;20.40;17.27;;;3.00;96.10;;;;;;5073583;28;20258;-75
2022/03/07 09:47:44;;;;;;;20.23;18.03;;;2.80;96.30;;;;;;5073321;28;20286;-76
2022/03/07 09:50:15;;;;;;;20.50;17.23;;;2.40;97.60;;;;;;5056706;28;20212;-76
2022/03/07 09:52:45;;;;;;;19.60;17.53;;;2.30;97.50;;;;;;5061519;28;20231;-77
2022/03/07 09:55:14;;;;;;;21.17;18.98;;;2.00;97.60;;;;;;5072374;28;20484;-77
2022/03/07 09:57:44;;;;;;;21.20;19.00;;;1.90;97.70;;;;;;5073187;28;20682;-76
2022/03/07 10:00:13;;;;;;;21.53;19.27;;;1.80;98.30;;;;;;5073352;28;20278;-74
2022/03/07 10:02:51;;;;;;;20.70;18.13;;;1.50;98.20;;;;;;5081930;28;20203;-76
2022/03/07 10:05:20;;;;;;;22.03;19.50;;;1.30;98.30;;;;;;5093670;28;20417;-76
2022/03/07 10:07:48;;;;;;;20.47;18.27;;;1.20;98.50;;;;;;5075907;28;20454;-75
2022/03/07 10:10:18;;;;;;;21.90;18.63;;;1.10;98.70;;;;;;5072766;28;20485;-77
2022/03/07 10:12:50;;;;;;;23.80;19.03;;;1.30;98.90;;;;;;5073209;28;20442;-76
2022/03/07 10:15:21;;;;;;;21.93;19.57;;;1.40;99.80;;;;;;5076683;28;20492;-75
2022/03/07 10:17:51;;;;;;;23.00;19.53;;;1.30;99.90;;;;;;5076133;28;20499;-76
2022/03/07 10:20:24;;;;;;;22.57;19.67;;;1.20;99.90;;;;;;5072601;28;20260;-76
2022/03/07 10:22:55;;;;;;;24.93;20.40;;;1.10;99.90;;;;;;5073539;28;20458;-76
2022/03/07 10:25:24;;;;;;;22.93;19.97;;;1.10;99.90;;;;;;5076450;28;20460;-76
2022/03/07 10:27:56;;;;;;;25.17;20.77;;;0.90;99.90;;;;;;5076978;28;20981;-76
2022/03/07 10:30:26;;;;;;;22.47;19.90;;;0.90;99.90;;;;;;5073035;28;20498;-75
2022/03/07 10:32:57;;;;;;;23.77;20.30;;;0.90;99.90;;;;;;5072892;28;20511;-74
2022/03/07 10:35:27;;;;;;;22.80;19.83;;;0.90;99.90;;;;;;5073149;28;20445;-76
2022/03/07 10:37:58;;;;;;;21.70;19.17;;;0.90;99.90;;;;;;5071290;28;20500;-75
2022/03/07 10:40:27;;;;;;;21.47;18.60;;;0.90;98.30;;;;;;5066457;28;20477;-74
2022/03/07 10:43:00;;;;;;;21.67;19.27;;;0.80;98.30;;;;;;5071932;28;20523;-77
2022/03/07 10:45:30;;;;;;;22.27;19.80;;;0.60;98.80;;;;;;5052422;28;20473;-75
2022/03/07 10:48:01;;;;;;;24.03;20.20;;;0.60;99.60;;;;;;5052564;28;20603;-76
2022/03/07 10:50:32;;;;;;;24.77;20.20;;;0.60;99.20;;;;;;5065815;28;20578;-75
2022/03/07 10:53:02;;;;;;;21.90;19.27;;;0.60;99.40;;;;;;5052729;28;20537;-76
2022/03/07 10:55:31;;;;;;;23.63;20.63;;;0.70;99.10;;;;;;5067852;28;20546;-75
2022/03/07 10:58:09;;;;;;;23.20;19.97;;;0.70;99.50;;;;;;5072553;28;20951;-77
2022/03/07 11:00:49;;;;;;;25.23;20.13;;;0.80;99.10;;;;;;5072846;28;20513;-76
2022/03/07 11:03:18;;;;;;;21.50;18.83;;;0.90;98.20;;;;;;5073001;28;20446;-75
2022/03/07 11:05:48;;;;;;;26.23;20.40;;;1.00;97.60;;;;;;5072973;28;20439;-77
2022/03/07 11:08:20;;;;;;;22.10;19.20;;;1.10;97.70;;;;;;5071261;28;20537;-75
2022/03/07 11:10:51;;;;;;;21.33;18.97;;;1.10;96.90;;;;;;5071516;28;20470;-75
2022/03/07 11:13:25;;;;;;;24.83;18.93;;;1.20;96.60;;;;;;5072692;28;20524;-76
2022/03/07 11:15:56;;;;;;;21.47;19.13;;;1.20;95.50;;;;;;5076605;28;20519;-76
2022/03/07 11:18:27;;;;;;;20.80;18.60;;;1.20;95.70;;;;;;5072339;28;20441;-76
2022/03/07 11:20:58;;;;;;;22.30;18.47;;;1.30;95.50;;;;;;5071783;28;20528;-77
2022/03/07 11:23:27;;;;;;;20.40;18.30;;;1.50;95.40;;;;;;5072041;28;20850;-76
2022/03/07 11:25:58;;;;;;;19.57;17.43;;;1.60;95.00;;;;;;5072306;28;20457;-76
2022/03/07 11:28:31;;;;;;;20.93;18.73;;;1.50;95.20;;;;;;5071894;28;20446;-76
2022/03/07 11:31:00;;;;;;;21.03;18.20;;;1.70;94.40;;;;;;5071314;28;20251;-76
2022/03/07 11:33:36;;;;;;;19.77;17.53;;;1.80;93.70;;;;;;5072086;28;20246;-76
2022/03/07 11:36:15;;;;;;;19.30;17.33;;;2.10;93.40;;;;;;5072250;28;20222;-76
2022/03/07 11:38:51;;;;;;;21.23;17.93;;;2.50;93.40;;;;;;5071738;28;20288;-77
2022/03/07 11:41:25;;;;;;;18.77;16.63;;;3.40;92.10;;;;;;5070351;28;20310;-76
2022/03/07 11:43:57;;;;;;;16.83;15.13;;;4.30;90.50;;;;;;5070923;28;20245;-76
2022/03/07 11:46:29;;;;;;;17.90;16.00;;;5.10;87.10;;;;;;5071914;28;20257;-75
2022/03/07 11:48:59;;;;;;;16.70;14.97;;;6.10;83.20;;;;;;5071546;28;20337;-76
2022/03/07 11:51:29;;;;;;;16.40;14.80;;;7.00;76.00;;;;;;5071631;28;20226;-76
2022/03/07 11:53:58;;;;;;;15.77;14.27;;;7.50;76.50;;;;;;5072600;28;20630;-75
2022/03/07 11:56:29;;;;;;;16.07;14.47;;;7.50;70.20;;;;;;5072209;28;20283;-74
2022/03/07 11:59:00;;;;;;;16.03;14.43;;;7.20;72.30;;;;;;5072102;28;20274;-77
2022/03/07 12:01:31;;;;;;;16.37;14.77;;;6.80;72.50;;;;;;5074824;28;20288;-78
2022/03/07 12:04:11;;;;;;;17.10;15.27;;;6.50;73.20;;;;;;5088734;28;20214;-76
2022/03/07 12:06:46;;;;;;;15.50;13.90;;;5.90;71.00;;;;;;5073227;28;20310;-76
2022/03/07 12:09:25;;;;;;;16.53;14.67;;;5.10;71.40;;;;;;5074473;28;20723;-75
2022/03/07 12:12:01;;;;;;;17.30;15.30;;;4.60;74.40;;;;;;5071596;28;20207;-77
2022/03/07 12:14:32;;;;;;;16.53;14.83;;;4.10;75.10;;;;;;5076746;28;20283;-77
2022/03/07 12:17:11;;;;;;;16.87;15.13;;;3.90;77.10;;;;;;5076664;28;20309;-74
2022/03/07 12:19:41;;;;;;;17.03;15.33;;;3.80;76.60;;;;;;5080005;28;20316;-76
2022/03/07 12:22:16;;;;;;;18.70;15.20;;;3.70;79.40;;;;;;5098846;28;20258;-76
2022/03/07 12:24:45;;;;;;;17.40;14.00;;;3.50;76.20;;;;;;5096648;28;20191;-76
2022/03/07 12:27:13;;;;;;;16.20;14.50;;;3.10;73.70;;;;;;5076089;28;20556;-75
2022/03/07 12:29:44;;;;;;;16.70;14.90;;;2.60;75.30;;;;;;5075794;28;20300;-76
2022/03/07 12:32:13;;;;;;;17.03;15.07;;;2.80;75.70;;;;;;5075300;28;20234;-77
2022/03/07 12:34:43;;;;;;;17.23;15.50;;;2.90;79.30;;;;;;5074909;28;20689;-77
2022/03/07 12:37:15;;;;;;;17.00;14.83;;;3.20;76.00;;;;;;5074891;28;20223;-76
2022/03/07 12:39:45;;;;;;;17.20;15.50;;;3.80;81.50;;;;;;5074855;28;20195;-77
2022/03/07 12:42:16;;;;;;;17.50;15.70;;;4.20;79.80;;;;;;5073602;28;20246;-77
2022/03/07 12:44:47;;;;;;;17.80;15.90;;;4.50;77.50;;;;;;5086552;28;20200;-76
2022/03/07 12:47:17;;;;;;;17.57;15.27;;;4.60;75.90;;;;;;5075188;28;20199;-77